createdAt,value
2018-10-09T00:01:35.508Z,43.08
2018-10-09T00:04:04.545Z,44.33
2018-10-09T00:06:33.620Z,43.87
2018-10-09T00:09:02.590Z,43.07
2018-10-09T00:11:31.435Z,45.83
2018-10-09T00:14:00.197Z,45.07
2018-10-09T00:16:30.440Z,45.45
2018-10-09T00:18:59.322Z,44.85
2018-10-09T00:21:28.101Z,45.80
2018-10-09T00:23:57.835Z,44.00
2018-10-09T00:26:26.623Z,43.58
2018-10-09T00:28:55.505Z,43.55
2018-10-09T00:31:24.296Z,43.98
2018-10-09T00:33:54.833Z,42.98
2018-10-09T00:36:23.692Z,41.25
2018-10-09T00:38:52.516Z,42.13
2018-10-09T00:41:21.340Z,42.15
2018-10-09T00:43:50.151Z,42.55
2018-10-09T00:46:19.251Z,41.33
2018-10-09T00:48:48.078Z,41.80
2018-10-09T00:51:16.930Z,40.67
2018-10-09T00:53:48.340Z,41.83
2018-10-09T00:56:17.219Z,40.88
2018-10-09T00:58:46.071Z,40.98
2018-10-09T01:01:16.076Z,40.45
2018-10-09T01:03:44.812Z,43.17
2018-10-09T01:06:13.621Z,42.70
2018-10-09T01:08:42.487Z,43.55
2018-10-09T01:11:11.721Z,42.17
2018-10-09T01:13:40.646Z,38.70
2018-10-09T01:16:09.677Z,38.65
2018-10-09T01:18:38.448Z,38.38
2018-10-09T01:21:08.248Z,39.30
2018-10-09T01:23:37.310Z,39.33
2018-10-09T01:26:06.246Z,40.20
2018-10-09T01:28:35.073Z,44.27
2018-10-09T01:31:07.625Z,45.00
2018-10-09T01:33:37.205Z,45.08
2018-10-09T01:36:06.079Z,45.25
2018-10-09T01:38:34.799Z,45.90
2018-10-09T01:41:03.568Z,44.07
2018-10-09T01:43:32.370Z,46.07
2018-10-09T01:46:01.169Z,46.90
2018-10-09T01:48:29.862Z,44.88
2018-10-09T01:50:58.686Z,45.90
2018-10-09T01:53:27.632Z,45.45
2018-10-09T01:55:59.169Z,45.67
2018-10-09T01:58:28.105Z,43.30
2018-10-09T02:00:56.866Z,41.93
2018-10-09T02:03:25.597Z,42.10
2018-10-09T02:05:54.527Z,43.90
2018-10-09T02:08:23.328Z,45.52
2018-10-09T02:10:54.065Z,48.02
2018-10-09T02:13:23.010Z,46.48
2018-10-09T02:15:51.763Z,48.40
2018-10-09T02:18:20.475Z,48.42
2018-10-09T02:20:49.197Z,47.20
2018-10-09T02:23:18.922Z,49.03
2018-10-09T02:25:47.800Z,49.88
2018-10-09T02:28:16.562Z,48.95
2018-10-09T02:30:45.324Z,46.25
2018-10-09T02:33:14.114Z,48.28
2018-10-09T02:35:43.078Z,48.58
2018-10-09T02:38:11.809Z,47.40
2018-10-09T02:40:41.400Z,47.83
2018-10-09T02:43:12.350Z,48.57
2018-10-09T02:45:41.301Z,46.83
2018-10-09T02:48:10.266Z,46.65
2018-10-09T02:50:39.764Z,48.08
2018-10-09T02:53:08.576Z,47.33
2018-10-09T02:55:37.413Z,46.48
2018-10-09T02:58:06.489Z,48.33
2018-10-09T03:00:35.930Z,46.63
2018-10-09T03:03:04.607Z,46.37
2018-10-09T03:05:33.280Z,45.33
2018-10-09T03:08:02.025Z,45.95
2018-10-09T03:10:30.916Z,43.83
2018-10-09T03:12:59.761Z,42.00
2018-10-09T03:15:28.571Z,44.03
2018-10-09T03:17:57.418Z,46.53
2018-10-09T03:20:26.394Z,45.23
2018-10-09T03:22:55.189Z,44.70
2018-10-09T03:25:23.927Z,43.33
2018-10-09T03:27:52.835Z,43.52
2018-10-09T03:30:21.561Z,41.53
2018-10-09T03:32:50.407Z,43.05
2018-10-09T03:35:19.348Z,42.27
2018-10-09T03:37:48.093Z,43.23
2018-10-09T03:40:16.814Z,43.15
2018-10-09T03:42:45.771Z,42.93
2018-10-09T03:45:14.523Z,46.48
2018-10-09T03:47:45.226Z,45.40
2018-10-09T03:50:13.998Z,45.20
2018-10-09T03:52:42.776Z,46.58
2018-10-09T03:55:11.648Z,46.42
2018-10-09T03:57:40.426Z,47.35
2018-10-09T04:00:09.089Z,47.75
2018-10-09T04:02:37.877Z,47.80
2018-10-09T04:05:06.775Z,48.90
2018-10-09T04:07:35.514Z,48.15
2018-10-09T04:10:04.405Z,47.65
2018-10-09T04:12:33.169Z,46.95
2018-10-09T04:15:01.924Z,46.33
2018-10-09T04:17:30.644Z,45.80
2018-10-09T04:20:01.182Z,44.38
2018-10-09T04:22:30.617Z,44.75
2018-10-09T04:24:59.542Z,43.40
2018-10-09T04:27:28.500Z,45.08
2018-10-09T04:29:57.275Z,48.75
2018-10-09T04:32:26.146Z,52.65
2018-10-09T04:34:54.892Z,51.02
2018-10-09T04:37:24.268Z,54.88
2018-10-09T04:39:53.171Z,51.77
2018-10-09T04:42:22.035Z,51.15
2018-10-09T04:44:50.732Z,52.43
2018-10-09T04:47:21.705Z,53.25
2018-10-09T04:49:50.333Z,51.18
2018-10-09T04:52:19.009Z,51.02
2018-10-09T04:54:47.990Z,47.35
2018-10-09T04:57:16.752Z,48.98
2018-10-09T04:59:45.474Z,48.90
2018-10-09T05:02:14.542Z,50.15
2018-10-09T05:04:43.418Z,49.80
2018-10-09T05:07:12.119Z,49.85
2018-10-09T05:09:40.838Z,50.03
2018-10-09T05:12:09.623Z,49.73
2018-10-09T05:14:38.411Z,48.08
2018-10-09T05:17:12.956Z,50.92
2018-10-09T05:19:46.153Z,48.57
2018-10-09T05:22:22.846Z,46.53
2018-10-09T05:24:51.874Z,43.73
2018-10-09T05:27:24.737Z,44.50
2018-10-09T05:29:53.632Z,42.00
2018-10-09T05:32:30.873Z,44.03
2018-10-09T05:35:08.790Z,43.70
2018-10-09T05:37:38.031Z,44.23
2018-10-09T05:40:07.085Z,41.50
2018-10-09T05:42:38.133Z,40.43
2018-10-09T05:45:07.151Z,40.28
2018-10-09T05:47:35.981Z,39.90
2018-10-09T05:50:05.287Z,42.05
2018-10-09T05:52:34.360Z,40.83
2018-10-09T05:55:03.250Z,39.95
2018-10-09T05:57:32.147Z,41.60
2018-10-09T06:00:00.972Z,43.92
2018-10-09T06:02:30.099Z,42.88
2018-10-09T06:04:58.892Z,42.48
2018-10-09T06:07:27.715Z,41.85
2018-10-09T06:09:56.553Z,41.35
2018-10-09T06:12:25.347Z,43.75
2018-10-09T06:14:54.391Z,57.33
2018-10-09T06:17:23.540Z,46.45
2018-10-09T06:19:52.385Z,47.67
2018-10-09T06:22:21.234Z,48.42
2018-10-09T06:24:54.885Z,46.23
2018-10-09T06:27:23.944Z,51.92
2018-10-09T06:29:52.823Z,51.10
2018-10-09T06:32:21.950Z,52.33
2018-10-09T06:34:51.048Z,48.93
2018-10-09T06:37:20.120Z,62.43
2018-10-09T06:39:49.076Z,81.17
2018-10-09T06:42:18.279Z,84.25
2018-10-09T06:44:47.106Z,98.20
2018-10-09T06:47:15.954Z,127.53
2018-10-09T06:49:48.875Z,120.42
2018-10-09T06:52:17.711Z,121.33
2018-10-09T06:54:46.615Z,140.30
2018-10-09T06:57:15.417Z,156.52
2018-10-09T06:59:44.289Z,156.50
2018-10-09T07:02:15.101Z,160.05
2018-10-09T07:04:44.022Z,161.90
2018-10-09T07:07:15.855Z,127.82
2018-10-09T07:09:45.525Z,118.28
2018-10-09T07:12:14.383Z,113.85
2018-10-09T07:14:43.623Z,115.82
2018-10-09T07:17:13.246Z,139.35
2018-10-09T07:19:42.711Z,142.53
2018-10-09T07:22:11.872Z,135.57
2018-10-09T07:24:43.043Z,162.50
2018-10-09T07:27:11.905Z,188.22
2018-10-09T07:29:40.674Z,227.78
2018-10-09T07:32:09.697Z,217.90
2018-10-09T07:34:38.555Z,235.78
2018-10-09T07:37:07.533Z,224.58
2018-10-09T07:39:36.583Z,196.22
2018-10-09T07:42:06.291Z,163.57
2018-10-09T07:44:36.419Z,128.42
2018-10-09T07:47:07.223Z,116.82
2018-10-09T07:49:36.301Z,110.30
2018-10-09T07:52:05.142Z,121.87
2018-10-09T07:54:33.921Z,120.42
2018-10-09T07:57:02.733Z,125.70
2018-10-09T07:59:31.517Z,140.20
2018-10-09T08:02:00.203Z,158.60
2018-10-09T08:04:29.066Z,146.95
2018-10-09T08:06:57.834Z,160.40
2018-10-09T08:09:27.070Z,148.90
2018-10-09T08:11:56.177Z,164.28
2018-10-09T08:14:27.344Z,166.53
2018-10-09T08:17:05.225Z,157.20
2018-10-09T08:19:34.451Z,173.78
2018-10-09T08:22:03.628Z,164.47
2018-10-09T08:24:34.016Z,164.97
2018-10-09T08:27:02.908Z,175.97
2018-10-09T08:29:35.401Z,170.40
2018-10-09T08:32:12.011Z,156.37
2018-10-09T08:34:46.399Z,154.85
2018-10-09T08:37:15.706Z,159.85
2018-10-09T08:39:44.530Z,166.50
2018-10-09T08:42:13.466Z,165.90
2018-10-09T08:44:42.744Z,177.30
2018-10-09T08:47:11.610Z,171.93
2018-10-09T08:49:40.620Z,180.33
2018-10-09T08:52:10.462Z,168.77
2018-10-09T08:54:39.792Z,160.50
2018-10-09T08:57:08.672Z,160.30
2018-10-09T08:59:37.496Z,164.88
2018-10-09T09:02:06.607Z,163.57
2018-10-09T09:04:35.612Z,164.52
2018-10-09T09:07:04.701Z,165.75
2018-10-09T09:09:33.642Z,156.80
2018-10-09T09:12:02.680Z,155.30
2018-10-09T09:14:37.347Z,152.43
2018-10-09T09:17:09.694Z,150.72
2018-10-09T09:19:39.449Z,152.68
2018-10-09T09:22:08.661Z,146.77
2018-10-09T09:24:38.041Z,146.87
2018-10-09T09:27:06.981Z,147.70
2018-10-09T09:29:38.925Z,134.52
2018-10-09T09:32:07.944Z,130.43
2018-10-09T09:34:36.893Z,132.15
2018-10-09T09:37:05.698Z,130.07
2018-10-09T09:39:34.418Z,139.40
2018-10-09T09:42:03.119Z,132.18
2018-10-09T09:44:32.946Z,141.53
2018-10-09T09:47:01.732Z,139.30
2018-10-09T09:49:32.027Z,152.43
2018-10-09T09:52:01.827Z,135.20
2018-10-09T09:54:30.615Z,115.55
2018-10-09T09:57:03.928Z,119.90
2018-10-09T09:59:39.102Z,120.90
2018-10-09T10:02:08.387Z,129.07
2018-10-09T10:04:37.139Z,118.90
2018-10-09T10:07:05.816Z,115.20
2018-10-09T10:09:34.700Z,122.20
2018-10-09T10:12:03.503Z,121.97
2018-10-09T10:14:34.709Z,136.95
2018-10-09T10:17:05.844Z,138.68
2018-10-09T10:19:44.853Z,142.77
2018-10-09T10:22:20.779Z,126.58
2018-10-09T10:24:56.776Z,125.30
2018-10-09T10:27:25.924Z,113.60
2018-10-09T10:29:54.739Z,103.55
2018-10-09T10:32:23.639Z,119.45
2018-10-09T10:34:52.516Z,124.33
2018-10-09T10:37:21.360Z,110.10
2018-10-09T10:39:50.807Z,108.72
2018-10-09T10:42:19.723Z,99.30
2018-10-09T10:44:49.212Z,79.67
2018-10-09T10:47:18.206Z,76.95
2018-10-09T10:49:47.527Z,73.67
2018-10-09T10:52:16.247Z,74.85
2018-10-09T10:54:45.146Z,61.45
2018-10-09T10:57:14.061Z,61.20
2018-10-09T10:59:42.766Z,58.63
2018-10-09T11:02:12.891Z,53.90
2018-10-09T11:04:41.900Z,55.33
2018-10-09T11:07:10.595Z,53.93
2018-10-09T11:09:39.288Z,54.20
2018-10-09T11:12:07.967Z,51.70
2018-10-09T11:14:36.761Z,46.63
2018-10-09T11:17:05.586Z,46.07
2018-10-09T11:19:34.240Z,46.85
2018-10-09T11:22:03.396Z,49.10
2018-10-09T11:24:32.257Z,43.30
2018-10-09T11:27:00.909Z,44.75
2018-10-09T11:29:29.612Z,43.95
2018-10-09T11:31:58.338Z,43.20
2018-10-09T11:34:27.055Z,44.67
2018-10-09T11:36:55.714Z,49.48
2018-10-09T11:39:24.385Z,50.28
2018-10-09T11:41:53.092Z,50.48
2018-10-09T12:07:22.908Z,48.20
2018-10-09T12:09:51.747Z,50.12
2018-10-09T12:12:21.438Z,51.60
2018-10-09T12:14:50.307Z,52.77
2018-10-09T12:17:19.089Z,55.38
2018-10-09T12:19:48.093Z,53.48
2018-10-09T12:22:18.442Z,59.03
2018-10-09T12:24:47.780Z,55.37
2018-10-09T12:27:16.638Z,59.97
2018-10-09T12:29:45.310Z,58.83
2018-10-09T12:32:15.334Z,51.17
2018-10-09T12:34:44.184Z,45.88
2018-10-09T12:37:12.737Z,41.70
2018-10-09T12:39:41.506Z,45.58
2018-10-09T12:42:10.326Z,45.55
2018-10-09T12:44:41.928Z,39.10
2018-10-09T12:47:11.042Z,43.50
2018-10-09T12:49:39.716Z,45.40
2018-10-09T12:52:08.402Z,40.98
2018-10-09T12:54:37.115Z,41.20
2018-10-09T12:57:05.985Z,42.60
2018-10-09T12:59:34.634Z,42.13
2018-10-09T13:02:03.317Z,43.75
2018-10-09T13:04:32.487Z,45.25
2018-10-09T13:07:01.294Z,41.40
2018-10-09T13:09:30.284Z,40.40
2018-10-09T13:11:58.969Z,38.78
2018-10-09T13:14:27.652Z,38.67
2018-10-09T13:16:58.035Z,38.05
2018-10-09T13:19:30.225Z,39.30
2018-10-09T13:22:01.095Z,37.90
2018-10-09T13:24:30.079Z,41.08
2018-10-09T13:27:01.927Z,42.15
2018-10-09T13:29:30.701Z,44.40
2018-10-09T13:31:59.471Z,42.45
2018-10-09T13:34:28.621Z,40.92
2018-10-09T13:36:57.395Z,40.78
2018-10-09T13:39:26.308Z,44.23
2018-10-09T13:41:55.062Z,44.35
2018-10-09T13:44:23.779Z,43.33
2018-10-09T13:46:54.805Z,41.00
2018-10-09T13:49:23.680Z,45.63
2018-10-09T13:51:53.357Z,46.05
2018-10-09T13:54:28.364Z,48.90
2018-10-09T13:56:57.417Z,50.83
2018-10-09T13:59:26.117Z,49.73
2018-10-09T14:01:54.871Z,53.63
2018-10-09T14:04:23.855Z,59.10
2018-10-09T14:06:52.766Z,50.52
2018-10-09T14:09:21.431Z,51.50
2018-10-09T14:11:50.335Z,48.98
2018-10-09T14:14:18.976Z,47.23
2018-10-09T14:16:47.701Z,46.63
2018-10-09T14:19:17.410Z,45.40
2018-10-09T14:21:46.114Z,45.85
2018-10-09T14:24:14.894Z,46.42
2018-10-09T14:26:43.556Z,46.00
2018-10-09T14:29:12.491Z,45.88
2018-10-09T14:31:41.229Z,46.35
2018-10-09T14:34:09.957Z,47.20
2018-10-09T14:36:38.662Z,47.55
2018-10-09T14:39:08.805Z,48.83
2018-10-09T14:41:37.669Z,49.27
2018-10-09T14:44:06.467Z,50.80
2018-10-09T14:46:35.217Z,51.07
2018-10-09T14:49:04.068Z,49.60
2018-10-09T14:51:32.784Z,47.25
2018-10-09T14:54:01.507Z,45.70
2018-10-09T14:56:30.415Z,44.93
2018-10-09T14:58:59.074Z,44.20
2018-10-09T15:01:27.751Z,45.12
2018-10-09T15:03:56.466Z,45.45
2018-10-09T15:06:25.534Z,44.03
2018-10-09T15:08:54.359Z,43.83
2018-10-09T15:11:23.026Z,44.65
2018-10-09T15:13:51.930Z,45.00
2018-10-09T15:16:24.347Z,43.38
2018-10-09T15:18:56.997Z,43.87
2018-10-09T15:21:25.900Z,41.70
2018-10-09T15:23:55.045Z,41.57
2018-10-09T15:26:23.922Z,40.53
2018-10-09T15:28:52.630Z,39.70
2018-10-09T15:31:21.342Z,39.42
2018-10-09T15:33:50.161Z,38.30
2018-10-09T15:36:18.876Z,39.55
2018-10-09T15:38:47.791Z,37.75
2018-10-09T15:41:16.559Z,38.23
2018-10-09T15:43:48.235Z,38.13
2018-10-09T15:46:16.972Z,38.95
2018-10-09T15:48:45.705Z,37.58
2018-10-09T15:51:14.306Z,37.85
2018-10-09T15:53:43.150Z,37.28
2018-10-09T15:56:11.841Z,40.38
2018-10-09T15:58:40.573Z,40.00
2018-10-09T16:01:10.154Z,41.03
2018-10-09T16:03:39.112Z,40.70
2018-10-09T16:06:08.031Z,41.63
2018-10-09T16:08:37.412Z,41.40
2018-10-09T16:11:06.155Z,42.83
2018-10-09T16:13:35.300Z,42.48
2018-10-09T16:16:04.047Z,42.75
2018-10-09T16:18:36.674Z,43.65
2018-10-09T16:21:05.510Z,43.05
2018-10-09T16:23:36.805Z,44.08
2018-10-09T16:26:05.956Z,43.87
2018-10-09T16:28:34.877Z,43.80
2018-10-09T16:31:03.687Z,44.58
2018-10-09T16:33:32.446Z,43.78
2018-10-09T16:36:01.141Z,43.87
2018-10-09T16:38:30.015Z,42.78
2018-10-09T16:40:58.853Z,44.33
2018-10-09T16:43:27.619Z,42.93
2018-10-09T16:45:56.431Z,43.52
2018-10-09T16:48:25.389Z,42.90
2018-10-09T16:50:54.173Z,41.93
2018-10-09T16:53:23.204Z,42.90
2018-10-09T16:55:51.942Z,41.50
2018-10-09T16:58:20.709Z,42.60
2018-10-09T17:00:50.133Z,42.55
2018-10-09T17:03:19.193Z,42.17
2018-10-09T17:05:48.119Z,42.98
2018-10-09T17:08:16.947Z,43.03
2018-10-09T17:10:45.965Z,42.58
2018-10-09T17:13:14.690Z,42.53
2018-10-09T17:15:43.361Z,42.03
2018-10-09T17:18:12.102Z,43.85
2018-10-09T17:20:40.786Z,44.35
2018-10-09T17:23:09.467Z,44.90
2018-10-09T17:25:38.345Z,45.30
2018-10-09T17:28:07.453Z,45.52
2018-10-09T17:30:36.304Z,44.42
2018-10-09T17:33:05.073Z,45.33
2018-10-09T17:35:33.874Z,44.73
2018-10-09T17:38:02.756Z,43.48
2018-10-09T17:40:31.466Z,44.73
2018-10-09T17:43:00.454Z,43.45
2018-10-09T17:45:29.378Z,45.20
2018-10-09T17:47:58.166Z,44.48
2018-10-09T17:50:26.936Z,45.90
2018-10-09T17:52:55.651Z,43.90
2018-10-09T17:55:24.592Z,44.08
2018-10-09T17:57:53.339Z,79.00
2018-10-09T18:00:22.273Z,116.37
2018-10-09T18:02:51.235Z,109.67
2018-10-09T18:05:20.068Z,54.08
2018-10-09T18:07:49.070Z,47.98
2018-10-09T18:10:18.610Z,46.83
2018-10-09T18:12:47.604Z,46.80
2018-10-09T18:15:16.545Z,47.25
2018-10-09T18:17:45.578Z,45.40
2018-10-09T18:20:14.539Z,43.73
2018-10-09T18:22:43.232Z,45.25
2018-10-09T18:25:12.038Z,45.23
2018-10-09T18:27:40.847Z,45.00
2018-10-09T18:30:10.523Z,45.85
2018-10-09T18:32:39.413Z,45.78
2018-10-09T18:35:08.348Z,45.95
2018-10-09T18:37:37.126Z,46.90
2018-10-09T18:40:06.148Z,48.00
2018-10-09T18:42:35.095Z,47.30
2018-10-09T18:45:04.109Z,47.45
2018-10-09T18:47:38.544Z,47.50
2018-10-09T18:50:07.387Z,49.05
2018-10-09T18:52:36.184Z,49.35
2018-10-09T18:55:05.526Z,50.60
2018-10-09T18:57:34.324Z,49.45
2018-10-09T19:00:03.324Z,48.25
2018-10-09T19:02:32.276Z,48.85
2018-10-09T19:05:01.602Z,46.20
2018-10-09T19:07:33.116Z,49.30
2018-10-09T19:10:02.167Z,46.45
2018-10-09T19:12:31.187Z,47.62
2018-10-09T19:15:00.601Z,47.78
2018-10-09T19:17:29.513Z,48.40
2018-10-09T19:19:58.418Z,48.55
2018-10-09T19:22:27.287Z,46.80
2018-10-09T19:24:56.099Z,46.02
2018-10-09T19:27:24.986Z,48.80
2018-10-09T19:29:54.529Z,46.37
2018-10-09T19:32:23.309Z,47.65
2018-10-09T19:34:52.070Z,46.80
2018-10-09T19:37:20.973Z,46.55
2018-10-09T19:39:54.511Z,46.88
2018-10-09T19:42:24.059Z,48.42
2018-10-09T19:44:53.162Z,47.75
2018-10-09T19:47:22.502Z,49.50
2018-10-09T19:49:51.340Z,49.42
2018-10-09T19:52:20.504Z,48.60
2018-10-09T19:54:49.576Z,48.55
2018-10-09T19:57:18.689Z,49.85
2018-10-09T19:59:47.455Z,49.45
2018-10-09T20:02:16.453Z,47.53
2018-10-09T20:04:48.232Z,47.48
2018-10-09T20:07:17.166Z,47.43
2018-10-09T20:09:45.899Z,46.65
2018-10-09T20:12:14.827Z,48.58
2018-10-09T20:14:43.516Z,48.87
2018-10-09T20:17:12.389Z,51.05
2018-10-09T20:19:44.516Z,49.55
2018-10-09T20:22:13.504Z,51.15
2018-10-09T20:24:42.492Z,50.73
2018-10-09T20:27:11.306Z,49.85
2018-10-09T20:29:48.354Z,49.67
2018-10-09T20:32:17.212Z,49.03
2018-10-09T20:34:45.982Z,48.30
2018-10-09T20:37:14.714Z,47.33
2018-10-09T20:39:46.059Z,49.08
2018-10-09T20:42:18.204Z,49.30
2018-10-09T20:44:48.631Z,50.95
2018-10-09T20:47:21.675Z,51.13
2018-10-09T20:49:50.449Z,51.33
2018-10-09T20:52:19.190Z,50.00
2018-10-09T20:54:48.219Z,51.55
2018-10-09T20:57:17.037Z,49.70
2018-10-09T20:59:45.756Z,49.98
2018-10-09T21:02:14.535Z,48.50
2018-10-09T21:04:43.321Z,49.50
2018-10-09T21:07:12.003Z,48.38
2018-10-09T21:09:40.691Z,49.70
2018-10-09T21:12:09.882Z,48.77
2018-10-09T21:14:38.640Z,49.55
2018-10-09T21:17:07.559Z,50.53
2018-10-09T21:19:37.078Z,47.70
2018-10-09T21:22:06.778Z,48.48
2018-10-09T21:24:35.674Z,49.23
2018-10-09T21:27:04.455Z,49.65
2018-10-09T21:29:33.340Z,50.00
2018-10-09T21:32:02.159Z,48.70
2018-10-09T21:34:31.041Z,50.33
2018-10-09T21:36:59.851Z,49.25
2018-10-09T21:39:28.548Z,48.45
2018-10-09T21:41:57.480Z,49.93
2018-10-09T21:44:26.283Z,51.15
2018-10-09T21:46:55.075Z,49.08
2018-10-09T21:49:26.514Z,48.55
2018-10-09T21:51:55.436Z,50.05
2018-10-09T21:54:24.337Z,49.23
2018-10-09T21:56:53.214Z,49.27
2018-10-09T21:59:23.228Z,50.17
2018-10-09T22:01:52.203Z,50.10
2018-10-09T22:04:21.016Z,49.67
2018-10-09T22:06:49.719Z,50.40
2018-10-09T22:09:19.906Z,53.50
2018-10-09T22:11:48.771Z,53.70
2018-10-09T22:14:17.647Z,53.40
2018-10-09T22:16:46.694Z,49.87
2018-10-09T22:19:15.431Z,46.63
2018-10-09T22:21:44.197Z,47.38
2018-10-09T22:24:12.939Z,51.77
2018-10-09T22:26:41.676Z,56.88
2018-10-09T22:29:10.392Z,55.73
2018-10-09T22:31:39.187Z,55.00
2018-10-09T22:34:08.044Z,54.70
2018-10-09T22:36:36.793Z,50.30
2018-10-09T22:39:07.955Z,52.95
2018-10-09T22:41:36.835Z,52.83
2018-10-09T22:44:05.836Z,54.98
2018-10-09T22:46:36.209Z,54.90
2018-10-09T22:49:05.275Z,55.35
2018-10-09T22:51:34.055Z,58.20
2018-10-09T22:54:03.025Z,54.93
2018-10-09T22:56:31.854Z,56.70
2018-10-09T22:59:00.689Z,59.80
2018-10-09T23:01:29.671Z,61.23
2018-10-09T23:03:58.860Z,61.00
2018-10-09T23:06:28.147Z,64.53
2018-10-09T23:08:59.350Z,62.13
2018-10-09T23:11:28.357Z,63.00
2018-10-09T23:13:57.084Z,63.60
2018-10-09T23:16:25.826Z,62.73
2018-10-09T23:18:54.630Z,62.20
2018-10-09T23:21:23.372Z,62.30
2018-10-09T23:23:52.092Z,61.90
2018-10-09T23:26:20.942Z,66.05
2018-10-09T23:28:49.882Z,58.65
2018-10-09T23:31:18.563Z,61.83
2018-10-09T23:33:47.263Z,57.10
2018-10-09T23:36:16.407Z,58.25
2018-10-09T23:38:45.852Z,60.30
2018-10-09T23:41:14.555Z,56.42
2018-10-09T23:43:45.389Z,59.55
2018-10-09T23:46:14.174Z,60.67
2018-10-09T23:48:42.894Z,60.93
2018-10-09T23:51:11.633Z,57.83
2018-10-09T23:53:40.480Z,60.28
2018-10-09T23:56:09.315Z,58.15
2018-10-09T23:58:38.230Z,59.27
